Seeley, CA

9:09 AM PST on February 10, 2016 (GMT -0800)
El Centro Naval Air Facility | | Change Station
CLOSE
Current Station
Airport
Location: El Centro,
Elevation: -43 ft
Nearby Weather Stations

Elev -43 ft 32.83 °N, 115.66 °W | Updated 13 minutes ago

Partly Cloudy
Partly Cloudy
67 °F
Feels Like 67 °F
N
7
Wind Variable Wind from West

Today
High -- | Low -- °F
--% Chance of Precip.
Yesterday
High -- | Low -- °F
Precip. -- in
Pressure 30.27 in
Visibility 10.0 miles
Clouds Scattered Clouds 28000 ft
Dew Point 28 °F
Humidity 23%
Rainfall 0.00 in
Snow Depth Not available.
6:30 AM 5:23 PM
Waxing Crescent, 6% visible
METAR KNJK 101656Z 27006KT 10SM SCT280 19/M02 A3022 RMK AO2 SLP248 T01941022
Pressure 30.27 in
Visibility 10.0 miles
Clouds Scattered Clouds 28000 ft
Dew Point 28 °F
Humidity 23%
Rainfall 0.00 in
Snow Depth Not available.
6:30 AM 5:23 PM
Waxing Crescent, 6% visible
METAR KNJK 101656Z 27006KT 10SM SCT280 19/M02 A3022 RMK AO2 SLP248 T01941022

10-Day Weather Forecast

Almanac

Astronomy

Feb. 10, 2016 Rise Set
Actual Time
Civil Twilight
Nautical Twilight
Astronomical Twilight
Moon
Length of Visible Light
Length of Day
Tomorrow will be .
, % of the Moon is Illuminated

Today's Extremes

State Highs State Lows

Community

WunderPhotos

Upload Photos

1,891,892 photos uploaded!

WunderBlog® & News

Nearby

Air Quality

  Air Quality AQ Index Pollutant
Not available.

Snow Depth

Station Depth Elevation

Earthquake Activity

City Distance Mag. Time & Date
Minimum magnitude displayed is 2.5.

Coastal Water Temperatures

Place Temperature

Stations

Nearby Weather Stations

Station Location Temp. Windchill Dew Point Humidity Wind Precip. Elev Updated Type
                   

Watches & Warnings

There are currently no watches in effect.